createdAt,value
2019-05-19T00:04:23.808Z,75.59
2019-05-19T00:09:27.233Z,76.93
2019-05-19T00:14:30.646Z,76.64
2019-05-19T00:19:34.088Z,76.66
2019-05-19T00:24:37.518Z,76.81
2019-05-19T00:29:40.958Z,77.67
2019-05-19T00:34:44.477Z,77.86
2019-05-19T00:39:47.977Z,77.29
2019-05-19T00:44:51.502Z,77.88
2019-05-19T00:49:54.942Z,79.23
2019-05-19T00:54:58.357Z,79.46
2019-05-19T01:00:02.361Z,79.78
2019-05-19T01:05:07.907Z,79.62
2019-05-19T01:10:12.068Z,80.17
2019-05-19T01:15:16.497Z,80.31
2019-05-19T01:20:20.061Z,81.46
2019-05-19T01:25:23.477Z,81.89
2019-05-19T01:30:26.982Z,81.08
2019-05-19T01:35:30.391Z,81.97
2019-05-19T01:40:33.809Z,81.09
2019-05-19T01:45:38.045Z,81.49
2019-05-19T01:50:41.544Z,82.04
2019-05-19T01:55:44.958Z,81.66
2019-05-19T02:00:48.480Z,82.56
2019-05-19T02:05:51.923Z,81.45
2019-05-19T02:10:55.358Z,81.74
2019-05-19T02:15:58.788Z,82.59
2019-05-19T02:21:02.257Z,81.52
2019-05-19T02:26:05.733Z,81.61
2019-05-19T02:31:09.159Z,82.18
2019-05-19T02:36:12.595Z,82.95
2019-05-19T02:41:18.051Z,84.27
2019-05-19T02:46:22.625Z,83.50
2019-05-19T02:51:28.925Z,81.74
2019-05-19T02:56:33.481Z,83.02
2019-05-19T03:01:38.741Z,82.92
2019-05-19T03:06:42.444Z,83.50
2019-05-19T03:11:45.968Z,82.91
2019-05-19T03:16:49.406Z,84.20
2019-05-19T03:21:52.836Z,84.06
2019-05-19T03:26:56.271Z,83.18
2019-05-19T03:32:11.556Z,83.29
2019-05-19T03:37:12.263Z,83.10
2019-05-19T03:42:15.698Z,83.86
2019-05-19T03:47:19.159Z,82.92
2019-05-19T03:52:22.599Z,84.08
2019-05-19T03:57:26.020Z,84.07
2019-05-19T04:02:29.441Z,84.31
2019-05-19T04:07:32.852Z,84.48
2019-05-19T04:12:36.328Z,83.78
2019-05-19T04:17:39.782Z,83.42
2019-05-19T04:22:43.280Z,83.58
2019-05-19T04:27:47.238Z,84.30
2019-05-19T04:32:50.701Z,84.20
2019-05-19T04:37:54.128Z,85.02
2019-05-19T04:42:57.562Z,84.64
2019-05-19T04:48:00.981Z,84.43
2019-05-19T04:53:04.403Z,86.78
2019-05-19T04:58:07.831Z,83.73
2019-05-19T05:03:11.294Z,84.01
2019-05-19T05:08:28.900Z,83.36
2019-05-19T05:13:19.880Z,86.61
2019-05-19T05:18:23.306Z,85.93
2019-05-19T05:23:26.755Z,84.59
2019-05-19T05:28:30.214Z,86.14
2019-05-19T05:33:33.702Z,87.78
2019-05-19T05:38:37.151Z,88.57
2019-05-19T05:43:40.588Z,87.34
2019-05-19T05:48:44.041Z,85.38
2019-05-19T05:53:47.464Z,84.42
2019-05-19T05:58:50.954Z,85.24
2019-05-19T06:03:54.366Z,83.97
2019-05-19T06:08:57.803Z,80.97
2019-05-19T06:14:01.294Z,80.45
2019-05-19T06:19:04.706Z,81.12
2019-05-19T06:24:08.136Z,81.81
2019-05-19T06:29:11.564Z,83.33
2019-05-19T06:34:14.992Z,83.66
2019-05-19T06:39:18.440Z,83.79
2019-05-19T06:44:21.922Z,81.38
2019-05-19T06:49:25.300Z,78.98
2019-05-19T06:54:28.792Z,76.91
2019-05-19T06:59:32.257Z,78.91
2019-05-19T07:04:35.706Z,78.28
2019-05-19T07:09:39.135Z,76.72
2019-05-19T07:14:42.584Z,76.97
2019-05-19T07:19:46.038Z,75.60
2019-05-19T07:24:49.693Z,76.72
2019-05-19T07:29:53.157Z,72.13
2019-05-19T07:34:56.531Z,73.71
2019-05-19T07:39:59.981Z,70.43
2019-05-19T07:45:04.503Z,69.52
2019-05-19T07:50:08.093Z,69.25
2019-05-19T07:55:11.643Z,67.83
2019-05-19T08:00:16.450Z,68.62
2019-05-19T08:05:19.895Z,64.17
2019-05-19T08:10:23.317Z,64.31
2019-05-19T08:15:26.768Z,65.25
2019-05-19T08:20:30.199Z,67.53
2019-05-19T08:25:33.627Z,62.31
2019-05-19T08:30:37.058Z,63.79
2019-05-19T08:35:40.564Z,61.28
2019-05-19T08:40:44.007Z,57.33
2019-05-19T08:45:47.426Z,55.62
2019-05-19T08:50:50.862Z,61.77
2019-05-19T08:55:54.382Z,58.42
2019-05-19T09:00:57.824Z,57.94
2019-05-19T09:06:01.240Z,56.02
2019-05-19T09:11:04.738Z,52.93
2019-05-19T09:16:08.178Z,49.53
2019-05-19T09:21:11.642Z,48.46
2019-05-19T09:26:15.047Z,49.36
2019-05-19T09:31:18.482Z,47.32
2019-05-19T09:36:21.922Z,45.79
2019-05-19T09:41:25.369Z,47.23
2019-05-19T09:46:28.781Z,47.22
2019-05-19T09:51:32.197Z,47.79
2019-05-19T09:56:35.617Z,41.85
2019-05-19T10:01:39.060Z,43.29
2019-05-19T10:06:42.580Z,42.40
2019-05-19T10:12:03.443Z,45.92
2019-05-19T10:17:06.904Z,44.26
2019-05-19T10:22:10.317Z,42.59
2019-05-19T10:27:13.738Z,41.87
2019-05-19T10:32:17.270Z,44.10
2019-05-19T10:37:20.729Z,44.16
2019-05-19T10:42:24.156Z,43.54
2019-05-19T10:47:27.586Z,43.46
2019-05-19T10:52:31.061Z,44.30
2019-05-19T10:57:34.489Z,39.94
2019-05-19T11:02:37.899Z,41.25
2019-05-19T11:07:41.570Z,42.58
2019-05-19T11:12:46.912Z,42.97
2019-05-19T11:17:50.599Z,42.75
2019-05-19T11:22:54.127Z,42.67
2019-05-19T11:27:58.155Z,41.06
2019-05-19T11:33:01.533Z,41.62
2019-05-19T11:38:04.969Z,38.82
2019-05-19T11:43:08.452Z,37.40
2019-05-19T11:48:11.873Z,35.05
2019-05-19T11:53:15.339Z,31.78
2019-05-19T11:58:18.794Z,36.55
2019-05-19T12:03:22.183Z,36.68
2019-05-19T12:08:25.703Z,37.53
2019-05-19T12:13:29.169Z,38.17
2019-05-19T12:18:32.586Z,34.32
2019-05-19T12:23:36.025Z,33.15
2019-05-19T12:28:39.431Z,32.59
2019-05-19T12:33:51.653Z,33.46
2019-05-19T12:38:48.082Z,31.08
2019-05-19T12:43:51.472Z,29.77
2019-05-19T12:48:54.931Z,31.04
2019-05-19T12:53:58.352Z,30.54
2019-05-19T12:59:01.762Z,30.87
2019-05-19T13:04:05.235Z,30.39
2019-05-19T13:09:09.405Z,31.00
2019-05-19T13:14:12.893Z,29.49
2019-05-19T13:19:16.347Z,28.15
2019-05-19T13:24:19.767Z,27.96
2019-05-19T13:29:23.177Z,29.53
2019-05-19T13:34:26.624Z,29.99
2019-05-19T13:39:30.064Z,30.32
2019-05-19T13:44:33.486Z,31.29
2019-05-19T13:49:36.910Z,32.02
2019-05-19T13:54:40.351Z,31.48
2019-05-19T13:59:43.794Z,31.86
2019-05-19T14:04:47.247Z,32.94
2019-05-19T14:09:50.702Z,33.93
2019-05-19T14:14:54.176Z,39.46
2019-05-19T14:19:57.602Z,42.04
2019-05-19T14:25:01.037Z,42.86
2019-05-19T14:30:06.625Z,44.47
2019-05-19T14:35:10.290Z,47.36
2019-05-19T14:40:14.570Z,47.66
2019-05-19T14:45:18.968Z,47.83
2019-05-19T14:50:22.541Z,48.78
2019-05-19T14:55:25.964Z,48.55
2019-05-19T15:00:29.409Z,48.61
2019-05-19T15:05:32.872Z,50.09
2019-05-19T15:10:36.302Z,53.76
2019-05-19T15:15:39.735Z,55.31
2019-05-19T15:25:45.540Z,54.98
2019-05-19T15:30:48.983Z,55.20
2019-05-19T15:35:52.400Z,53.90
2019-05-19T15:40:55.807Z,53.85
2019-05-19T15:45:59.263Z,54.57
2019-05-19T15:51:02.715Z,54.08
2019-05-19T15:56:06.157Z,53.94
2019-05-19T16:01:09.702Z,54.53
2019-05-19T16:06:13.103Z,53.71
2019-05-19T16:11:16.517Z,53.67
2019-05-19T16:16:19.954Z,56.67
2019-05-19T16:21:23.395Z,56.67
2019-05-19T16:26:26.822Z,55.86
2019-05-19T16:31:30.241Z,55.86
2019-05-19T16:36:33.692Z,56.11
2019-05-19T16:41:37.281Z,56.06
2019-05-19T16:46:40.800Z,57.22
2019-05-19T16:51:44.415Z,55.92
2019-05-19T16:56:47.860Z,55.87
2019-05-19T17:01:51.338Z,55.88
2019-05-19T17:06:54.727Z,55.83
2019-05-19T17:11:58.152Z,55.83
2019-05-19T17:17:01.593Z,55.25
2019-05-19T17:22:06.051Z,54.81
2019-05-19T17:27:09.592Z,57.01
2019-05-19T17:32:13.006Z,57.01
2019-05-19T17:37:16.456Z,57.39
2019-05-19T17:42:19.903Z,57.39
2019-05-19T17:47:23.424Z,56.69
2019-05-19T17:52:27.261Z,57.59
2019-05-19T17:57:32.343Z,57.95
2019-05-19T18:02:35.773Z,59.79
2019-05-19T18:07:39.226Z,61.31
2019-05-19T18:12:42.663Z,61.59
2019-05-19T18:17:46.125Z,62.47
2019-05-19T18:22:49.803Z,63.04
2019-05-19T18:27:54.017Z,64.52
2019-05-19T18:32:57.467Z,64.55
2019-05-19T18:38:00.950Z,64.55
2019-05-19T18:43:04.440Z,65.12
2019-05-19T18:48:07.866Z,66.02
2019-05-19T18:53:11.300Z,67.27
2019-05-19T18:58:14.698Z,68.61
2019-05-19T19:03:18.114Z,68.90
2019-05-19T19:08:22.361Z,68.89
2019-05-19T19:13:25.808Z,69.42
2019-05-19T19:18:29.605Z,70.09
2019-05-19T19:23:33.041Z,70.44
2019-05-19T19:28:36.473Z,70.60
2019-05-19T19:33:39.890Z,71.20
2019-05-19T19:38:43.315Z,71.68
2019-05-19T19:43:47.632Z,72.47
2019-05-19T19:48:51.062Z,72.79
2019-05-19T19:53:54.486Z,73.12
2019-05-19T19:58:57.911Z,73.08
2019-05-19T20:04:01.345Z,74.18
2019-05-19T20:09:06.364Z,76.24
2019-05-19T20:14:09.808Z,77.52
2019-05-19T20:19:13.223Z,77.33
2019-05-19T20:24:16.730Z,77.57
2019-05-19T20:29:20.183Z,76.60
2019-05-19T20:34:23.599Z,76.83
2019-05-19T20:39:27.058Z,76.88
2019-05-19T20:44:30.500Z,77.47
2019-05-19T20:49:33.931Z,77.17
2019-05-19T20:54:37.379Z,77.55
2019-05-19T20:59:42.402Z,77.06
2019-05-19T21:04:45.910Z,77.33
2019-05-19T21:09:49.364Z,77.11
2019-05-19T21:14:52.875Z,77.36
2019-05-19T21:19:56.311Z,77.25
2019-05-19T21:24:59.769Z,77.22
2019-05-19T21:30:03.428Z,77.66
2019-05-19T21:35:07.239Z,77.68
2019-05-19T21:40:10.691Z,77.82
2019-05-19T21:45:16.554Z,77.82
2019-05-19T21:50:19.992Z,78.36
2019-05-19T21:55:23.686Z,78.33
2019-05-19T22:00:29.291Z,78.81
2019-05-19T22:05:32.727Z,78.41
2019-05-19T22:10:36.161Z,78.62
2019-05-19T22:15:39.759Z,78.92
2019-05-19T22:20:43.220Z,79.48
2019-05-19T22:25:46.646Z,79.29
2019-05-19T22:30:50.064Z,79.33
2019-05-19T22:35:53.483Z,80.38
2019-05-19T22:40:56.916Z,80.79
2019-05-19T22:46:00.352Z,80.15
2019-05-19T22:51:03.761Z,81.11
2019-05-19T22:56:07.214Z,81.82
2019-05-19T23:01:10.766Z,82.15
2019-05-19T23:06:14.208Z,83.40
2019-05-19T23:11:17.634Z,82.66
2019-05-19T23:16:21.132Z,83.89
2019-05-19T23:21:24.561Z,83.82
2019-05-19T23:26:27.983Z,82.25
2019-05-19T23:31:31.414Z,82.20
2019-05-19T23:36:34.833Z,82.48
2019-05-19T23:41:38.247Z,82.27
2019-05-19T23:46:41.679Z,81.30
2019-05-19T23:51:45.096Z,83.03
2019-05-19T23:56:48.531Z,84.03
